sensor_id;sensor_type;location;lat;lon;timestamp;pressure;altitude;pressure_sealevel;temperature;humidity
43298;BME280;28892;55.640;37.532;2022-12-18T00:01:56;98136.81;;;-2.73;75.93
43298;BME280;28892;55.640;37.532;2022-12-18T00:04:24;98128.44;;;-2.77;75.69
43298;BME280;28892;55.640;37.532;2022-12-18T00:06:51;98136.81;;;-2.73;75.34
43298;BME280;28892;55.640;37.532;2022-12-18T00:09:17;98132.31;;;-2.71;75.87
43298;BME280;28892;55.640;37.532;2022-12-18T00:11:42;98114.50;;;-2.43;76.96
43298;BME280;28892;55.640;37.532;2022-12-18T00:14:09;98129.97;;;-2.74;75.53
43298;BME280;28892;55.640;37.532;2022-12-18T00:16:36;98121.06;;;-2.93;75.72
43298;BME280;28892;55.640;37.532;2022-12-18T00:19:03;98115.34;;;-2.75;76.47
43298;BME280;28892;55.640;37.532;2022-12-18T00:21:30;98112.81;;;-2.65;76.50
43298;BME280;28892;55.640;37.532;2022-12-18T00:23:57;98117.53;;;-2.59;76.63
43298;BME280;28892;55.640;37.532;2022-12-18T00:26:25;98104.25;;;-2.77;74.69
43298;BME280;28892;55.640;37.532;2022-12-18T00:29:01;98115.50;;;-2.88;74.79
43298;BME280;28892;55.640;37.532;2022-12-18T00:31:30;98107.44;;;-3.06;74.08
43298;BME280;28892;55.640;37.532;2022-12-18T00:33:56;98108.91;;;-2.81;75.80
43298;BME280;28892;55.640;37.532;2022-12-18T00:36:28;98098.25;;;-2.78;75.74
43298;BME280;28892;55.640;37.532;2022-12-18T00:38:55;98092.22;;;-2.78;75.67
43298;BME280;28892;55.640;37.532;2022-12-18T00:41:21;98087.22;;;-2.91;75.32
43298;BME280;28892;55.640;37.532;2022-12-18T00:44:07;98081.66;;;-2.87;75.17
43298;BME280;28892;55.640;37.532;2022-12-18T00:46:34;98093.75;;;-2.97;74.54
43298;BME280;28892;55.640;37.532;2022-12-18T00:49:00;98078.72;;;-2.93;74.72
43298;BME280;28892;55.640;37.532;2022-12-18T00:51:25;98067.28;;;-2.91;75.60
43298;BME280;28892;55.640;37.532;2022-12-18T00:53:52;98057.69;;;-2.79;75.56
43298;BME280;28892;55.640;37.532;2022-12-18T00:56:21;98053.50;;;-2.91;74.18
43298;BME280;28892;55.640;37.532;2022-12-18T00:58:47;98046.41;;;-2.89;74.66
43298;BME280;28892;55.640;37.532;2022-12-18T01:01:13;98045.25;;;-2.97;74.57
43298;BME280;28892;55.640;37.532;2022-12-18T01:03:39;98044.59;;;-2.89;75.35
43298;BME280;28892;55.640;37.532;2022-12-18T01:06:07;98041.00;;;-2.98;74.25
43298;BME280;28892;55.640;37.532;2022-12-18T01:08:33;98029.63;;;-2.85;74.78
43298;BME280;28892;55.640;37.532;2022-12-18T01:10:59;98042.84;;;-2.88;74.46
43298;BME280;28892;55.640;37.532;2022-12-18T01:13:24;98030.13;;;-2.91;73.92
43298;BME280;28892;55.640;37.532;2022-12-18T01:15:50;98038.41;;;-2.76;74.87
43298;BME280;28892;55.640;37.532;2022-12-18T01:18:16;98025.25;;;-2.85;74.43
43298;BME280;28892;55.640;37.532;2022-12-18T01:20:42;98021.13;;;-2.66;75.97
43298;BME280;28892;55.640;37.532;2022-12-18T01:23:07;98021.19;;;-2.77;74.90
43298;BME280;28892;55.640;37.532;2022-12-18T01:25:35;98026.00;;;-2.73;73.98
43298;BME280;28892;55.640;37.532;2022-12-18T01:28:01;98041.63;;;-2.84;73.02
43298;BME280;28892;55.640;37.532;2022-12-18T01:30:27;98037.91;;;-2.91;73.39
43298;BME280;28892;55.640;37.532;2022-12-18T01:32:53;98040.34;;;-2.57;75.96
43298;BME280;28892;55.640;37.532;2022-12-18T01:35:19;98035.44;;;-2.72;75.56
43298;BME280;28892;55.640;37.532;2022-12-18T01:37:45;98036.72;;;-2.87;74.32
43298;BME280;28892;55.640;37.532;2022-12-18T01:40:11;98039.63;;;-2.81;74.13
43298;BME280;28892;55.640;37.532;2022-12-18T01:42:38;98027.84;;;-2.85;74.50
43298;BME280;28892;55.640;37.532;2022-12-18T01:47:46;98021.13;;;-2.87;74.14
43298;BME280;28892;55.640;37.532;2022-12-18T01:50:22;98018.66;;;-2.89;73.15
43298;BME280;28892;55.640;37.532;2022-12-18T01:52:52;98026.59;;;-2.90;74.18
43298;BME280;28892;55.640;37.532;2022-12-18T01:55:20;98037.34;;;-2.95;73.27
43298;BME280;28892;55.640;37.532;2022-12-18T01:57:49;98032.63;;;-3.01;72.93
43298;BME280;28892;55.640;37.532;2022-12-18T02:00:20;98018.66;;;-2.89;73.77
43298;BME280;28892;55.640;37.532;2022-12-18T02:02:46;98021.63;;;-2.93;73.45
43298;BME280;28892;55.640;37.532;2022-12-18T02:05:16;98022.34;;;-2.91;72.97
43298;BME280;28892;55.640;37.532;2022-12-18T02:10:36;98003.28;;;-3.02;72.61
43298;BME280;28892;55.640;37.532;2022-12-18T02:27:13;98014.69;;;-3.26;71.57
43298;BME280;28892;55.640;37.532;2022-12-18T02:29:51;98007.31;;;-3.30;71.35
43298;BME280;28892;55.640;37.532;2022-12-18T02:32:22;98014.03;;;-3.39;71.46
43298;BME280;28892;55.640;37.532;2022-12-18T02:34:54;98009.91;;;-3.09;72.60
43298;BME280;28892;55.640;37.532;2022-12-18T02:37:23;98017.25;;;-3.14;71.83
43298;BME280;28892;55.640;37.532;2022-12-18T02:39:54;98016.81;;;-3.19;71.63
43298;BME280;28892;55.640;37.532;2022-12-18T02:42:22;98027.50;;;-3.45;70.78
43298;BME280;28892;55.640;37.532;2022-12-18T02:44:50;98014.56;;;-3.57;70.73
43298;BME280;28892;55.640;37.532;2022-12-18T02:47:23;98031.13;;;-3.37;71.21
43298;BME280;28892;55.640;37.532;2022-12-18T02:57:58;98012.88;;;-3.35;70.63
43298;BME280;28892;55.640;37.532;2022-12-18T03:03:29;98010.97;;;-3.12;71.19
43298;BME280;28892;55.640;37.532;2022-12-18T03:06:53;98018.28;;;-3.05;71.42
43298;BME280;28892;55.640;37.532;2022-12-18T03:09:19;98014.84;;;-3.27;70.24
43298;BME280;28892;55.640;37.532;2022-12-18T03:11:54;98009.81;;;-3.40;70.38
43298;BME280;28892;55.640;37.532;2022-12-18T03:14:40;98028.19;;;-3.43;70.37
43298;BME280;28892;55.640;37.532;2022-12-18T03:17:12;98012.50;;;-3.42;70.51
43298;BME280;28892;55.640;37.532;2022-12-18T03:19:41;98022.09;;;-3.54;70.61
43298;BME280;28892;55.640;37.532;2022-12-18T03:22:09;98019.16;;;-3.49;70.99
43298;BME280;28892;55.640;37.532;2022-12-18T03:24:45;98015.69;;;-3.38;71.00
43298;BME280;28892;55.640;37.532;2022-12-18T03:27:15;98023.94;;;-3.33;71.00
43298;BME280;28892;55.640;37.532;2022-12-18T03:32:26;98019.06;;;-3.70;70.30
43298;BME280;28892;55.640;37.532;2022-12-18T03:34:55;98027.56;;;-3.80;70.87
43298;BME280;28892;55.640;37.532;2022-12-18T03:37:24;98026.63;;;-3.67;71.11
43298;BME280;28892;55.640;37.532;2022-12-18T03:39:51;98008.00;;;-3.72;70.85
43298;BME280;28892;55.640;37.532;2022-12-18T03:45:10;98007.72;;;-3.46;71.04
43298;BME280;28892;55.640;37.532;2022-12-18T03:50:34;98006.63;;;-3.44;70.12
43298;BME280;28892;55.640;37.532;2022-12-18T03:55:49;98031.63;;;-3.54;70.51
43298;BME280;28892;55.640;37.532;2022-12-18T03:58:19;98028.34;;;-3.56;70.19
43298;BME280;28892;55.640;37.532;2022-12-18T04:01:10;98029.66;;;-3.62;69.84
43298;BME280;28892;55.640;37.532;2022-12-18T04:03:39;98024.81;;;-3.67;69.82
43298;BME280;28892;55.640;37.532;2022-12-18T04:06:07;98007.97;;;-3.61;69.68
43298;BME280;28892;55.640;37.532;2022-12-18T04:08:34;98029.22;;;-3.67;69.54
43298;BME280;28892;55.640;37.532;2022-12-18T04:11:07;98046.84;;;-3.61;70.03
43298;BME280;28892;55.640;37.532;2022-12-18T04:13:37;98059.38;;;-3.89;69.51
43298;BME280;28892;55.640;37.532;2022-12-18T04:16:08;98065.97;;;-3.73;70.88
43298;BME280;28892;55.640;37.532;2022-12-18T04:18:38;98057.47;;;-3.75;69.94
43298;BME280;28892;55.640;37.532;2022-12-18T04:21:04;98069.59;;;-3.76;69.91
43298;BME280;28892;55.640;37.532;2022-12-18T04:23:30;98059.44;;;-3.56;70.12
43298;BME280;28892;55.640;37.532;2022-12-18T04:25:57;98061.81;;;-3.65;69.97
43298;BME280;28892;55.640;37.532;2022-12-18T04:28:43;98068.44;;;-3.72;71.19
43298;BME280;28892;55.640;37.532;2022-12-18T04:31:09;98085.38;;;-3.68;70.44
43298;BME280;28892;55.640;37.532;2022-12-18T04:33:35;98087.63;;;-3.74;70.35
43298;BME280;28892;55.640;37.532;2022-12-18T04:36:02;98106.47;;;-3.72;70.71
43298;BME280;28892;55.640;37.532;2022-12-18T04:38:29;98108.25;;;-3.73;70.46
43298;BME280;28892;55.640;37.532;2022-12-18T04:41:02;98107.31;;;-3.83;70.61
43298;BME280;28892;55.640;37.532;2022-12-18T04:43:29;98101.78;;;-3.79;70.73
43298;BME280;28892;55.640;37.532;2022-12-18T04:46:04;98107.66;;;-3.76;70.81
43298;BME280;28892;55.640;37.532;2022-12-18T04:48:31;98102.59;;;-3.78;70.77
43298;BME280;28892;55.640;37.532;2022-12-18T04:50:56;98115.31;;;-3.75;70.80
43298;BME280;28892;55.640;37.532;2022-12-18T04:53:22;98112.16;;;-3.79;70.84
43298;BME280;28892;55.640;37.532;2022-12-18T04:55:48;98102.56;;;-3.55;71.31
43298;BME280;28892;55.640;37.532;2022-12-18T04:58:13;98107.53;;;-3.75;70.22
43298;BME280;28892;55.640;37.532;2022-12-18T05:00:39;98101.06;;;-3.92;70.55
43298;BME280;28892;55.640;37.532;2022-12-18T05:03:05;98103.88;;;-3.84;71.01
43298;BME280;28892;55.640;37.532;2022-12-18T05:05:30;98097.53;;;-3.80;70.49
43298;BME280;28892;55.640;37.532;2022-12-18T05:07:56;98112.25;;;-3.80;69.97
43298;BME280;28892;55.640;37.532;2022-12-18T05:10:21;98131.44;;;-3.94;70.08
43298;BME280;28892;55.640;37.532;2022-12-18T05:12:47;98124.50;;;-3.94;70.31
43298;BME280;28892;55.640;37.532;2022-12-18T05:15:32;98111.22;;;-3.77;70.13
43298;BME280;28892;55.640;37.532;2022-12-18T05:17:58;98111.06;;;-3.87;69.62
43298;BME280;28892;55.640;37.532;2022-12-18T05:20:24;98124.72;;;-3.74;69.87
43298;BME280;28892;55.640;37.532;2022-12-18T05:22:51;98134.38;;;-3.87;69.22
43298;BME280;28892;55.640;37.532;2022-12-18T05:25:18;98145.69;;;-3.88;69.09
43298;BME280;28892;55.640;37.532;2022-12-18T05:27:44;98155.25;;;-3.89;69.10
43298;BME280;28892;55.640;37.532;2022-12-18T05:30:11;98161.47;;;-3.91;68.99
43298;BME280;28892;55.640;37.532;2022-12-18T05:32:37;98165.63;;;-3.89;69.31
43298;BME280;28892;55.640;37.532;2022-12-18T05:35:04;98161.00;;;-3.85;68.59
43298;BME280;28892;55.640;37.532;2022-12-18T05:37:30;98169.16;;;-3.79;69.04
43298;BME280;28892;55.640;37.532;2022-12-18T05:39:56;98175.63;;;-3.84;68.89
43298;BME280;28892;55.640;37.532;2022-12-18T05:42:22;98181.72;;;-3.85;68.98
43298;BME280;28892;55.640;37.532;2022-12-18T05:44:47;98183.63;;;-3.87;68.89
43298;BME280;28892;55.640;37.532;2022-12-18T05:47:13;98189.06;;;-3.79;68.21
43298;BME280;28892;55.640;37.532;2022-12-18T05:49:39;98190.81;;;-3.80;68.89
43298;BME280;28892;55.640;37.532;2022-12-18T05:52:04;98198.56;;;-3.91;68.78
43298;BME280;28892;55.640;37.532;2022-12-18T05:54:30;98195.19;;;-3.80;69.29
43298;BME280;28892;55.640;37.532;2022-12-18T05:56:57;98173.94;;;-3.97;68.94
43298;BME280;28892;55.640;37.532;2022-12-18T05:59:22;98185.06;;;-3.72;69.32
43298;BME280;28892;55.640;37.532;2022-12-18T06:01:48;98197.53;;;-3.77;69.04
43298;BME280;28892;55.640;37.532;2022-12-18T06:04:14;98196.22;;;-3.94;68.59
43298;BME280;28892;55.640;37.532;2022-12-18T06:06:40;98210.22;;;-3.97;70.38
43298;BME280;28892;55.640;37.532;2022-12-18T06:09:05;98217.03;;;-3.96;70.52
43298;BME280;28892;55.640;37.532;2022-12-18T06:11:37;98224.28;;;-3.88;70.32
43298;BME280;28892;55.640;37.532;2022-12-18T06:14:04;98225.69;;;-3.84;69.74
43298;BME280;28892;55.640;37.532;2022-12-18T06:16:31;98206.00;;;-3.86;68.97
43298;BME280;28892;55.640;37.532;2022-12-18T06:18:58;98223.16;;;-3.97;69.06
43298;BME280;28892;55.640;37.532;2022-12-18T06:21:24;98223.41;;;-4.00;68.98
43298;BME280;28892;55.640;37.532;2022-12-18T06:23:50;98241.13;;;-3.82;69.63
43298;BME280;28892;55.640;37.532;2022-12-18T06:26:15;98232.72;;;-3.97;68.94
43298;BME280;28892;55.640;37.532;2022-12-18T06:28:41;98240.72;;;-4.00;68.76
43298;BME280;28892;55.640;37.532;2022-12-18T06:31:07;98252.28;;;-3.93;68.61
43298;BME280;28892;55.640;37.532;2022-12-18T06:33:34;98254.03;;;-4.05;68.56
43298;BME280;28892;55.640;37.532;2022-12-18T06:36:11;98261.59;;;-3.90;69.17
43298;BME280;28892;55.640;37.532;2022-12-18T06:38:38;98273.53;;;-3.76;69.22
43298;BME280;28892;55.640;37.532;2022-12-18T06:41:09;98280.50;;;-3.66;68.62
43298;BME280;28892;55.640;37.532;2022-12-18T06:43:35;98277.50;;;-3.84;67.39
43298;BME280;28892;55.640;37.532;2022-12-18T06:46:01;98293.56;;;-3.79;67.52
43298;BME280;28892;55.640;37.532;2022-12-18T06:48:27;98300.50;;;-3.79;67.93
43298;BME280;28892;55.640;37.532;2022-12-18T06:50:53;98299.00;;;-4.06;67.49
43298;BME280;28892;55.640;37.532;2022-12-18T06:53:19;98301.22;;;-4.01;67.76
43298;BME280;28892;55.640;37.532;2022-12-18T06:55:44;98306.38;;;-3.77;67.71
43298;BME280;28892;55.640;37.532;2022-12-18T06:58:10;98319.94;;;-3.73;67.28
43298;BME280;28892;55.640;37.532;2022-12-18T07:00:35;98315.03;;;-3.65;66.92
43298;BME280;28892;55.640;37.532;2022-12-18T07:03:01;98313.97;;;-3.62;66.85
43298;BME280;28892;55.640;37.532;2022-12-18T07:05:27;98325.88;;;-3.60;67.08
43298;BME280;28892;55.640;37.532;2022-12-18T07:07:52;98319.06;;;-3.85;66.28
43298;BME280;28892;55.640;37.532;2022-12-18T07:10:18;98308.16;;;-3.77;66.64
43298;BME280;28892;55.640;37.532;2022-12-18T07:12:44;98324.78;;;-3.69;66.65
43298;BME280;28892;55.640;37.532;2022-12-18T07:15:09;98329.63;;;-3.64;66.62
43298;BME280;28892;55.640;37.532;2022-12-18T07:17:35;98329.03;;;-3.68;65.70
43298;BME280;28892;55.640;37.532;2022-12-18T07:20:01;98359.19;;;-3.67;65.76
43298;BME280;28892;55.640;37.532;2022-12-18T07:22:28;98367.53;;;-3.74;65.57
43298;BME280;28892;55.640;37.532;2022-12-18T07:24:54;98350.16;;;-3.61;65.64
43298;BME280;28892;55.640;37.532;2022-12-18T07:27:20;98352.25;;;-3.66;65.18
43298;BME280;28892;55.640;37.532;2022-12-18T07:29:46;98350.41;;;-3.53;65.48
43298;BME280;28892;55.640;37.532;2022-12-18T07:32:12;98358.28;;;-3.54;65.15
43298;BME280;28892;55.640;37.532;2022-12-18T07:34:38;98354.31;;;-3.47;64.88
43298;BME280;28892;55.640;37.532;2022-12-18T07:37:03;98354.94;;;-3.32;65.03
43298;BME280;28892;55.640;37.532;2022-12-18T07:39:30;98362.78;;;-3.56;63.75
43298;BME280;28892;55.640;37.532;2022-12-18T07:41:55;98359.66;;;-3.26;65.08
43298;BME280;28892;55.640;37.532;2022-12-18T07:44:40;98369.53;;;-3.42;64.52
43298;BME280;28892;55.640;37.532;2022-12-18T07:47:06;98371.84;;;-3.51;64.49
43298;BME280;28892;55.640;37.532;2022-12-18T07:49:32;98376.53;;;-3.67;64.14
43298;BME280;28892;55.640;37.532;2022-12-18T07:51:58;98377.94;;;-3.63;64.42
43298;BME280;28892;55.640;37.532;2022-12-18T07:54:24;98370.81;;;-3.48;64.72
43298;BME280;28892;55.640;37.532;2022-12-18T07:56:51;98381.78;;;-3.44;64.40
43298;BME280;28892;55.640;37.532;2022-12-18T07:59:17;98379.31;;;-3.70;64.20
43298;BME280;28892;55.640;37.532;2022-12-18T08:01:43;98394.81;;;-3.57;64.93
43298;BME280;28892;55.640;37.532;2022-12-18T08:04:09;98396.72;;;-3.59;64.39
43298;BME280;28892;55.640;37.532;2022-12-18T08:06:35;98396.84;;;-3.49;64.65
43298;BME280;28892;55.640;37.532;2022-12-18T08:09:00;98415.59;;;-3.46;64.25
43298;BME280;28892;55.640;37.532;2022-12-18T08:11:27;98413.66;;;-3.31;64.84
43298;BME280;28892;55.640;37.532;2022-12-18T08:13:54;98424.59;;;-3.39;64.13
43298;BME280;28892;55.640;37.532;2022-12-18T08:16:21;98439.44;;;-3.41;64.03
43298;BME280;28892;55.640;37.532;2022-12-18T08:18:59;98437.56;;;-3.39;64.14
43298;BME280;28892;55.640;37.532;2022-12-18T08:21:29;98444.38;;;-3.13;65.38
43298;BME280;28892;55.640;37.532;2022-12-18T08:23:57;98433.56;;;-3.31;64.10
43298;BME280;28892;55.640;37.532;2022-12-18T08:26:26;98446.28;;;-3.40;63.85
43298;BME280;28892;55.640;37.532;2022-12-18T08:28:54;98451.28;;;-3.49;64.15
43298;BME280;28892;55.640;37.532;2022-12-18T08:31:20;98453.31;;;-3.42;64.43
43298;BME280;28892;55.640;37.532;2022-12-18T08:33:48;98453.31;;;-3.42;64.09
43298;BME280;28892;55.640;37.532;2022-12-18T08:36:14;98466.00;;;-3.26;64.07
43298;BME280;28892;55.640;37.532;2022-12-18T08:38:40;98467.28;;;-3.31;63.98
43298;BME280;28892;55.640;37.532;2022-12-18T08:41:09;98471.19;;;-3.26;64.41
43298;BME280;28892;55.640;37.532;2022-12-18T08:43:34;98453.59;;;-3.33;64.06
43298;BME280;28892;55.640;37.532;2022-12-18T08:46:20;98479.44;;;-3.32;63.97
43298;BME280;28892;55.640;37.532;2022-12-18T08:48:46;98471.16;;;-3.37;64.37
43298;BME280;28892;55.640;37.532;2022-12-18T08:51:11;98459.63;;;-3.33;64.50
43298;BME280;28892;55.640;37.532;2022-12-18T08:53:38;98466.75;;;-3.24;64.48
43298;BME280;28892;55.640;37.532;2022-12-18T08:56:04;98461.09;;;-3.17;64.44
43298;BME280;28892;55.640;37.532;2022-12-18T08:58:30;98464.28;;;-3.14;64.55
43298;BME280;28892;55.640;37.532;2022-12-18T09:01:00;98452.03;;;-3.12;64.27
43298;BME280;28892;55.640;37.532;2022-12-18T09:03:27;98458.84;;;-3.11;64.39
43298;BME280;28892;55.640;37.532;2022-12-18T09:05:53;98471.25;;;-3.14;64.21
43298;BME280;28892;55.640;37.532;2022-12-18T09:08:19;98471.97;;;-3.12;64.43
43298;BME280;28892;55.640;37.532;2022-12-18T09:10:46;98477.16;;;-3.12;64.61
43298;BME280;28892;55.640;37.532;2022-12-18T09:13:12;98505.41;;;-2.96;64.29
43298;BME280;28892;55.640;37.532;2022-12-18T09:15:42;98509.34;;;-3.15;64.00
43298;BME280;28892;55.640;37.532;2022-12-18T09:18:09;98514.47;;;-3.02;64.67
43298;BME280;28892;55.640;37.532;2022-12-18T09:20:36;98515.59;;;-3.06;64.76
43298;BME280;28892;55.640;37.532;2022-12-18T09:23:02;98519.72;;;-3.15;64.34
43298;BME280;28892;55.640;37.532;2022-12-18T09:25:29;98528.84;;;-2.98;64.95
43298;BME280;28892;55.640;37.532;2022-12-18T09:27:59;98524.75;;;-2.89;65.17
43298;BME280;28892;55.640;37.532;2022-12-18T09:30:26;98520.69;;;-3.04;64.30
43298;BME280;28892;55.640;37.532;2022-12-18T09:32:53;98515.94;;;-3.11;64.51
43298;BME280;28892;55.640;37.532;2022-12-18T09:35:18;98531.22;;;-2.95;65.09
43298;BME280;28892;55.640;37.532;2022-12-18T09:37:44;98523.38;;;-3.06;64.59
43298;BME280;28892;55.640;37.532;2022-12-18T09:40:15;98535.31;;;-3.03;64.58
43298;BME280;28892;55.640;37.532;2022-12-18T09:42:45;98541.56;;;-3.06;64.88
43298;BME280;28892;55.640;37.532;2022-12-18T09:45:14;98546.19;;;-2.98;64.96
43298;BME280;28892;55.640;37.532;2022-12-18T09:47:42;98550.38;;;-2.84;65.20
43298;BME280;28892;55.640;37.532;2022-12-18T09:50:31;98549.38;;;-2.95;64.53
43298;BME280;28892;55.640;37.532;2022-12-18T09:53:04;98542.72;;;-2.86;65.30
43298;BME280;28892;55.640;37.532;2022-12-18T09:55:36;98550.84;;;-2.90;65.02
43298;BME280;28892;55.640;37.532;2022-12-18T10:00:44;98546.91;;;-2.96;65.96
43298;BME280;28892;55.640;37.532;2022-12-18T10:03:11;98552.44;;;-3.01;65.08
43298;BME280;28892;55.640;37.532;2022-12-18T10:22:57;98563.84;;;-2.43;65.18
43298;BME280;28892;55.640;37.532;2022-12-18T10:25:33;98569.31;;;-2.71;64.97
43298;BME280;28892;55.640;37.532;2022-12-18T10:28:15;98562.16;;;-2.91;64.95
43298;BME280;28892;55.640;37.532;2022-12-18T10:30:42;98549.03;;;-2.90;65.43
43298;BME280;28892;55.640;37.532;2022-12-18T10:33:16;98566.75;;;-2.95;65.57
43298;BME280;28892;55.640;37.532;2022-12-18T10:35:42;98560.31;;;-3.02;65.89
43298;BME280;28892;55.640;37.532;2022-12-18T10:43:29;98578.09;;;-2.85;66.50
43298;BME280;28892;55.640;37.532;2022-12-18T10:51:07;98610.47;;;-3.02;65.94
43298;BME280;28892;55.640;37.532;2022-12-18T10:53:35;98623.31;;;-3.00;66.54
43298;BME280;28892;55.640;37.532;2022-12-18T10:56:03;98640.72;;;-2.89;66.90
43298;BME280;28892;55.640;37.532;2022-12-18T10:58:34;98631.75;;;-3.10;66.28
43298;BME280;28892;55.640;37.532;2022-12-18T11:03:35;98646.34;;;-2.71;66.84
43298;BME280;28892;55.640;37.532;2022-12-18T11:09:23;98641.81;;;-2.81;66.79
43298;BME280;28892;55.640;37.532;2022-12-18T11:11:51;98641.81;;;-2.81;66.64
43298;BME280;28892;55.640;37.532;2022-12-18T11:14:24;98634.97;;;-3.06;67.05
43298;BME280;28892;55.640;37.532;2022-12-18T11:16:51;98644.88;;;-3.24;67.02
43298;BME280;28892;55.640;37.532;2022-12-18T11:21:50;98634.47;;;-3.11;67.19
43298;BME280;28892;55.640;37.532;2022-12-18T11:24:25;98625.91;;;-3.00;66.80
43298;BME280;28892;55.640;37.532;2022-12-18T11:26:52;98636.44;;;-3.02;66.83
43298;BME280;28892;55.640;37.532;2022-12-18T11:29:23;98652.16;;;-2.92;66.80
43298;BME280;28892;55.640;37.532;2022-12-18T11:32:12;98654.19;;;-3.09;66.34
43298;BME280;28892;55.640;37.532;2022-12-18T11:34:51;98646.41;;;-3.09;66.89
43298;BME280;28892;55.640;37.532;2022-12-18T11:37:21;98657.19;;;-3.02;66.78
43298;BME280;28892;55.640;37.532;2022-12-18T11:39:55;98667.56;;;-3.02;66.56
43298;BME280;28892;55.640;37.532;2022-12-18T11:42:48;98661.91;;;-2.96;66.27
43298;BME280;28892;55.640;37.532;2022-12-18T11:45:28;98667.97;;;-3.08;66.45
43298;BME280;28892;55.640;37.532;2022-12-18T11:48:03;98672.63;;;-3.00;66.68
43298;BME280;28892;55.640;37.532;2022-12-18T11:53:00;98687.00;;;-3.07;66.21
43298;BME280;28892;55.640;37.532;2022-12-18T12:01:21;98711.63;;;-3.26;66.97
43298;BME280;28892;55.640;37.532;2022-12-18T12:04:01;98717.97;;;-3.30;67.33
43298;BME280;28892;55.640;37.532;2022-12-18T12:18:27;98747.25;;;-2.91;66.97
43298;BME280;28892;55.640;37.532;2022-12-18T12:20:59;98753.03;;;-2.74;66.14
43298;BME280;28892;55.640;37.532;2022-12-18T12:38:11;98774.34;;;-2.95;66.99
43298;BME280;28892;55.640;37.532;2022-12-18T12:41:04;98780.69;;;-2.99;66.94
43298;BME280;28892;55.640;37.532;2022-12-18T12:43:38;98792.13;;;-3.02;66.88
43298;BME280;28892;55.640;37.532;2022-12-18T12:46:09;98796.06;;;-2.96;67.21
43298;BME280;28892;55.640;37.532;2022-12-18T12:49:01;98804.13;;;-2.88;67.28
43298;BME280;28892;55.640;37.532;2022-12-18T12:51:30;98811.41;;;-3.06;66.51
43298;BME280;28892;55.640;37.532;2022-12-18T12:53:59;98812.69;;;-3.25;67.15
43298;BME280;28892;55.640;37.532;2022-12-18T12:59:25;98820.88;;;-3.18;67.32
43298;BME280;28892;55.640;37.532;2022-12-18T13:02:18;98831.03;;;-2.89;68.09
43298;BME280;28892;55.640;37.532;2022-12-18T13:07:44;98840.38;;;-3.25;67.97
43298;BME280;28892;55.640;37.532;2022-12-18T13:15:49;98846.19;;;-2.96;67.62
43298;BME280;28892;55.640;37.532;2022-12-18T13:18:30;98853.88;;;-3.20;67.38
43298;BME280;28892;55.640;37.532;2022-12-18T13:25:59;98878.38;;;-3.11;67.35
43298;BME280;28892;55.640;37.532;2022-12-18T13:34:17;98889.38;;;-3.07;67.37
43298;BME280;28892;55.640;37.532;2022-12-18T13:36:44;98891.53;;;-3.27;66.79
43298;BME280;28892;55.640;37.532;2022-12-18T13:41:39;98902.06;;;-3.03;67.29
43298;BME280;28892;55.640;37.532;2022-12-18T13:46:59;98916.13;;;-3.20;66.52
43298;BME280;28892;55.640;37.532;2022-12-18T13:49:37;98913.03;;;-3.12;67.60
43298;BME280;28892;55.640;37.532;2022-12-18T13:52:17;98930.66;;;-3.17;67.62
43298;BME280;28892;55.640;37.532;2022-12-18T13:54:47;98933.09;;;-3.14;67.60
43298;BME280;28892;55.640;37.532;2022-12-18T13:57:29;98944.81;;;-3.09;67.18
43298;BME280;28892;55.640;37.532;2022-12-18T13:59:57;98942.09;;;-3.07;67.36
43298;BME280;28892;55.640;37.532;2022-12-18T14:02:27;98952.22;;;-2.89;67.40
43298;BME280;28892;55.640;37.532;2022-12-18T14:04:54;98950.50;;;-3.16;66.57
43298;BME280;28892;55.640;37.532;2022-12-18T14:07:23;98955.88;;;-3.19;67.58
43298;BME280;28892;55.640;37.532;2022-12-18T14:09:52;98960.81;;;-3.02;67.69
43298;BME280;28892;55.640;37.532;2022-12-18T14:12:24;98964.56;;;-2.93;67.45
43298;BME280;28892;55.640;37.532;2022-12-18T14:15:35;98968.72;;;-2.77;67.58
43298;BME280;28892;55.640;37.532;2022-12-18T14:18:24;98972.22;;;-3.04;66.89
43298;BME280;28892;55.640;37.532;2022-12-18T14:21:02;98980.38;;;-3.24;66.80
43298;BME280;28892;55.640;37.532;2022-12-18T14:23:40;98988.34;;;-3.27;68.01
43298;BME280;28892;55.640;37.532;2022-12-18T14:26:26;98992.59;;;-3.26;68.42
43298;BME280;28892;55.640;37.532;2022-12-18T14:29:34;98993.78;;;-3.17;68.38
43298;BME280;28892;55.640;37.532;2022-12-18T14:36:28;99008.47;;;-3.03;66.94
43298;BME280;28892;55.640;37.532;2022-12-18T14:39:00;99010.56;;;-3.23;66.55
43298;BME280;28892;55.640;37.532;2022-12-18T14:41:26;99005.78;;;-3.29;66.31
43298;BME280;28892;55.640;37.532;2022-12-18T14:44:12;99016.06;;;-3.27;66.36
43298;BME280;28892;55.640;37.532;2022-12-18T14:46:53;99037.63;;;-3.27;65.12
43298;BME280;28892;55.640;37.532;2022-12-18T14:49:33;99045.03;;;-3.48;65.26
43298;BME280;28892;55.640;37.532;2022-12-18T14:52:05;99038.09;;;-3.62;65.56
43298;BME280;28892;55.640;37.532;2022-12-18T14:54:33;99044.59;;;-3.55;65.78
43298;BME280;28892;55.640;37.532;2022-12-18T14:57:16;99050.13;;;-3.46;65.87
43298;BME280;28892;55.640;37.532;2022-12-18T14:59:52;99048.44;;;-3.47;65.44
43298;BME280;28892;55.640;37.532;2022-12-18T15:03:06;99056.22;;;-3.20;65.52
43298;BME280;28892;55.640;37.532;2022-12-18T15:06:31;99050.28;;;-2.95;65.46
43298;BME280;28892;55.640;37.532;2022-12-18T15:09:24;99076.47;;;-2.98;64.44
43298;BME280;28892;55.640;37.532;2022-12-18T15:11:58;99066.53;;;-3.18;64.22
43298;BME280;28892;55.640;37.532;2022-12-18T15:14:35;99078.75;;;-2.93;64.77
43298;BME280;28892;55.640;37.532;2022-12-18T15:17:19;99060.53;;;-3.06;64.30
43298;BME280;28892;55.640;37.532;2022-12-18T15:20:01;99086.47;;;-3.33;64.12
43298;BME280;28892;55.640;37.532;2022-12-18T15:22:47;99077.44;;;-3.41;64.47
43298;BME280;28892;55.640;37.532;2022-12-18T15:25:34;99088.13;;;-3.18;65.05
43298;BME280;28892;55.640;37.532;2022-12-18T15:28:02;99088.69;;;-3.27;64.65
43298;BME280;28892;55.640;37.532;2022-12-18T15:30:28;99079.75;;;-3.51;64.56
43298;BME280;28892;55.640;37.532;2022-12-18T15:33:29;99101.22;;;-3.34;64.80
43298;BME280;28892;55.640;37.532;2022-12-18T15:36:00;99101.16;;;-3.47;64.71